Time;durP1;ratioP1;P1;durP2;ratioP2;P2;SDS_P1;SDS_P2;PMS_P1;PMS_P2;Temp;Humidity;BMP_temperature;BMP_pressure;BME280_temperature;BME280_humidity;BME280_pressure;Samples;Min_cycle;Max_cycle;Signal;HPM_P1;HPM_P2
2021/10/27 00:01:44;;;;;;;22.27;17.07;;;12.20;99.90;;;;;;5031118;28;20254;-65
2021/10/27 00:04:14;;;;;;;20.13;15.93;;;12.20;99.90;;;;;;5028502;28;20289;-65
2021/10/27 00:06:42;;;;;;;23.33;16.53;;;12.30;99.90;;;;;;5040055;28;20226;-66
2021/10/27 00:09:10;;;;;;;23.47;16.43;;;12.20;99.90;;;;;;5040437;28;20777;-65
2021/10/27 00:11:39;;;;;;;21.60;17.23;;;12.20;99.90;;;;;;5037581;28;20641;-65
2021/10/27 00:14:07;;;;;;;23.93;17.17;;;12.20;99.90;;;;;;5042156;28;20245;-65
2021/10/27 00:16:35;;;;;;;25.23;17.37;;;12.20;99.90;;;;;;5030309;28;20238;-65
2021/10/27 00:19:04;;;;;;;24.70;16.80;;;12.20;99.90;;;;;;5032817;28;20238;-65
2021/10/27 00:21:34;;;;;;;23.90;17.00;;;12.20;99.90;;;;;;5039529;28;20235;-66
2021/10/27 00:24:04;;;;;;;20.70;16.63;;;12.20;99.90;;;;;;5036247;28;20657;-65
2021/10/27 00:26:32;;;;;;;24.70;17.90;;;12.30;99.90;;;;;;5031532;28;20249;-65
2021/10/27 00:29:00;;;;;;;27.83;18.57;;;12.20;99.90;;;;;;5036308;28;20638;-65
2021/10/27 00:31:28;;;;;;;22.40;17.07;;;12.20;99.90;;;;;;5036041;28;20234;-65
2021/10/27 00:33:57;;;;;;;23.03;16.70;;;12.20;99.90;;;;;;5036246;28;20274;-65
2021/10/27 00:36:25;;;;;;;24.77;16.83;;;12.20;99.90;;;;;;5035137;28;20234;-65
2021/10/27 00:38:54;;;;;;;24.37;18.07;;;12.30;99.90;;;;;;5041339;28;20329;-65
2021/10/27 00:41:23;;;;;;;22.37;16.97;;;12.30;99.90;;;;;;5036480;28;20245;-65
2021/10/27 00:43:51;;;;;;;21.03;16.67;;;12.30;99.90;;;;;;5028785;28;20238;-65
2021/10/27 00:46:21;;;;;;;25.07;17.57;;;12.30;99.90;;;;;;5038347;28;20242;-65
2021/10/27 00:48:50;;;;;;;25.07;18.23;;;12.30;99.90;;;;;;5036986;28;20686;-65
2021/10/27 00:51:19;;;;;;;23.93;17.17;;;12.30;99.90;;;;;;5037817;28;20242;-65
2021/10/27 00:53:48;;;;;;;20.40;18.20;;;12.30;99.90;;;;;;5029931;28;20311;-65
2021/10/27 00:56:19;;;;;;;22.27;17.90;;;12.30;99.90;;;;;;5033559;28;20417;-65
2021/10/27 00:58:48;;;;;;;21.67;17.77;;;12.30;99.90;;;;;;5036815;28;20238;-65
2021/10/27 01:01:16;;;;;;;22.23;18.37;;;12.30;99.90;;;;;;5032991;28;20699;-65
2021/10/27 01:03:44;;;;;;;23.60;18.43;;;12.30;99.90;;;;;;5035623;28;20259;-65
2021/10/27 01:06:12;;;;;;;24.63;18.33;;;12.40;99.90;;;;;;5037405;28;20551;-66
2021/10/27 01:08:40;;;;;;;26.73;18.27;;;12.40;99.90;;;;;;5029296;28;20224;-65
2021/10/27 01:11:09;;;;;;;24.67;18.47;;;12.40;99.90;;;;;;5041500;28;20285;-66
2021/10/27 01:13:38;;;;;;;26.40;19.27;;;12.40;99.90;;;;;;5034666;28;20743;-65
2021/10/27 01:16:06;;;;;;;25.20;18.33;;;12.40;99.90;;;;;;5039714;28;20245;-65
2021/10/27 01:18:36;;;;;;;28.87;19.33;;;12.40;99.90;;;;;;5026746;28;20643;-65
2021/10/27 01:21:06;;;;;;;26.33;19.87;;;12.40;99.90;;;;;;5044127;28;20242;-65
2021/10/27 01:23:34;;;;;;;25.13;18.40;;;12.40;99.90;;;;;;5042419;28;20245;-65
2021/10/27 01:26:07;;;;;;;24.00;18.17;;;12.40;99.90;;;;;;5041061;28;20348;-65
2021/10/27 01:28:40;;;;;;;27.03;18.73;;;12.40;99.90;;;;;;5044007;28;20314;-64
2021/10/27 01:31:10;;;;;;;26.80;19.30;;;12.40;99.90;;;;;;5038778;28;20939;-65
2021/10/27 01:33:38;;;;;;;28.73;19.43;;;12.40;99.90;;;;;;5033204;28;20309;-65
2021/10/27 01:36:08;;;;;;;25.53;18.57;;;12.40;99.90;;;;;;5037151;28;20661;-65
2021/10/27 01:38:37;;;;;;;23.43;19.13;;;12.50;99.90;;;;;;5042742;28;20235;-65
2021/10/27 01:41:06;;;;;;;25.90;19.57;;;12.50;99.90;;;;;;5039324;28;20304;-65
2021/10/27 01:43:48;;;;;;;27.53;20.13;;;12.50;99.90;;;;;;5041966;28;20295;-65
2021/10/27 01:46:16;;;;;;;22.87;19.10;;;12.50;99.90;;;;;;5035265;28;20814;-66
2021/10/27 01:48:44;;;;;;;29.37;19.60;;;12.50;99.90;;;;;;5042431;28;20238;-64
2021/10/27 01:51:14;;;;;;;22.57;18.63;;;12.50;99.90;;;;;;5040913;28;20250;-65
2021/10/27 01:53:43;;;;;;;27.37;20.63;;;12.60;99.90;;;;;;5034058;28;20276;-65
2021/10/27 01:56:11;;;;;;;26.50;19.67;;;12.50;99.90;;;;;;5040653;28;20270;-65
2021/10/27 01:58:39;;;;;;;25.37;20.37;;;12.50;99.90;;;;;;5042357;28;20237;-65
2021/10/27 02:01:09;;;;;;;26.20;20.60;;;12.50;99.90;;;;;;5035710;28;20231;-65
2021/10/27 02:03:37;;;;;;;28.73;20.57;;;12.50;99.90;;;;;;5031044;28;20235;-65
2021/10/27 02:06:06;;;;;;;29.40;19.47;;;12.60;99.90;;;;;;5038235;28;20702;-65
2021/10/27 02:08:36;;;;;;;28.33;21.10;;;12.60;99.90;;;;;;5033517;28;20259;-65
2021/10/27 02:11:05;;;;;;;27.83;21.13;;;12.60;99.90;;;;;;5032198;28;20250;-65
2021/10/27 02:13:52;;;;;;;34.20;22.63;;;12.60;99.90;;;;;;5035332;28;20245;-65
2021/10/27 02:16:22;;;;;;;29.10;21.17;;;12.60;99.90;;;;;;5029379;28;20231;-65
2021/10/27 02:18:50;;;;;;;27.77;21.27;;;12.70;99.90;;;;;;5039849;28;20325;-65
2021/10/27 02:21:19;;;;;;;29.33;22.40;;;12.60;99.90;;;;;;5030485;28;20239;-65
2021/10/27 02:23:50;;;;;;;27.97;21.67;;;12.70;99.90;;;;;;5030538;28;20227;-65
2021/10/27 02:26:20;;;;;;;26.20;21.63;;;12.70;99.90;;;;;;5029001;28;20704;-65
2021/10/27 02:28:49;;;;;;;32.27;22.63;;;12.70;99.90;;;;;;5035349;28;20238;-65
2021/10/27 02:31:17;;;;;;;31.03;22.37;;;12.70;99.90;;;;;;5034226;28;20318;-65
2021/10/27 02:33:46;;;;;;;29.30;22.33;;;12.70;99.90;;;;;;5032782;28;20661;-65
2021/10/27 02:36:14;;;;;;;27.97;21.53;;;12.70;99.90;;;;;;5036415;28;20233;-65
2021/10/27 02:38:43;;;;;;;28.97;21.80;;;12.70;99.90;;;;;;5030779;28;20351;-64
2021/10/27 02:41:15;;;;;;;29.80;21.90;;;12.80;99.90;;;;;;5035798;28;20300;-65
2021/10/27 02:43:43;;;;;;;30.50;21.67;;;12.70;99.90;;;;;;5028430;28;20575;-65
2021/10/27 02:46:12;;;;;;;27.30;21.73;;;12.70;99.90;;;;;;5029611;28;20259;-64
2021/10/27 02:48:41;;;;;;;27.17;23.07;;;12.70;99.90;;;;;;5033067;28;20239;-65
2021/10/27 02:51:09;;;;;;;30.53;23.30;;;12.70;99.90;;;;;;5037126;28;20317;-65
2021/10/27 02:53:37;;;;;;;30.63;23.20;;;12.80;99.90;;;;;;5036089;28;20719;-66
2021/10/27 02:56:05;;;;;;;30.17;22.37;;;12.80;99.90;;;;;;5036253;28;20326;-65
2021/10/27 02:58:35;;;;;;;32.33;23.40;;;12.70;99.90;;;;;;5036638;28;20247;-65
2021/10/27 03:01:03;;;;;;;31.10;23.70;;;12.80;99.90;;;;;;5032687;28;20236;-64
2021/10/27 03:03:32;;;;;;;28.90;22.20;;;12.70;99.90;;;;;;5034047;28;20667;-65
2021/10/27 03:06:00;;;;;;;31.47;22.60;;;12.70;99.90;;;;;;5032074;28;20706;-65
2021/10/27 03:08:29;;;;;;;29.83;21.80;;;12.70;99.90;;;;;;5033506;28;20325;-65
2021/10/27 03:10:57;;;;;;;30.03;23.50;;;12.80;99.90;;;;;;5032328;28;20338;-65
2021/10/27 03:13:25;;;;;;;30.67;23.27;;;12.80;99.90;;;;;;5037908;28;20231;-65
2021/10/27 03:15:54;;;;;;;30.43;22.13;;;12.70;99.90;;;;;;5032064;28;20239;-65
2021/10/27 03:18:26;;;;;;;32.97;22.87;;;12.80;99.90;;;;;;5042434;28;20266;-65
2021/10/27 03:20:54;;;;;;;27.70;23.30;;;12.80;99.90;;;;;;5036498;28;20242;-65
2021/10/27 03:23:22;;;;;;;31.30;23.77;;;12.80;99.90;;;;;;5031055;28;20235;-65
2021/10/27 03:25:50;;;;;;;32.90;24.97;;;12.80;99.90;;;;;;5030452;28;20329;-65
2021/10/27 03:28:19;;;;;;;31.57;24.97;;;12.90;99.90;;;;;;5030775;28;20238;-64
2021/10/27 03:30:47;;;;;;;30.63;23.37;;;12.80;99.90;;;;;;5035482;28;20333;-65
2021/10/27 03:33:18;;;;;;;31.40;24.00;;;12.80;99.90;;;;;;5029407;28;20248;-65
2021/10/27 03:35:47;;;;;;;32.27;23.83;;;12.90;99.90;;;;;;5033567;28;20250;-66
2021/10/27 03:38:15;;;;;;;29.47;24.53;;;12.90;99.90;;;;;;5033217;28;20246;-65
2021/10/27 03:40:45;;;;;;;32.17;24.53;;;12.90;99.90;;;;;;5033355;28;20239;-64
2021/10/27 03:43:14;;;;;;;32.17;24.40;;;12.90;99.90;;;;;;5031459;28;20330;-65
2021/10/27 03:45:42;;;;;;;33.33;23.67;;;12.90;99.90;;;;;;5037523;28;20325;-65
2021/10/27 03:48:10;;;;;;;33.53;25.80;;;12.90;99.90;;;;;;5030036;28;20622;-65
2021/10/27 03:50:40;;;;;;;35.50;24.77;;;12.90;99.90;;;;;;5033397;28;20535;-65
2021/10/27 03:53:09;;;;;;;32.23;24.57;;;12.90;99.90;;;;;;5028307;28;20235;-65
2021/10/27 03:55:37;;;;;;;33.87;24.40;;;12.90;99.90;;;;;;5028781;28;20230;-65
2021/10/27 03:58:05;;;;;;;32.77;24.10;;;12.90;99.90;;;;;;5033224;28;20235;-65
2021/10/27 04:00:36;;;;;;;34.63;25.63;;;12.90;99.90;;;;;;5027468;28;20277;-65
2021/10/27 04:03:06;;;;;;;30.00;24.20;;;13.00;99.90;;;;;;5034455;28;20266;-65
2021/10/27 04:05:34;;;;;;;32.07;25.27;;;12.90;99.90;;;;;;5026251;28;20329;-64
2021/10/27 04:08:04;;;;;;;32.27;24.93;;;13.00;99.90;;;;;;5030752;28;20270;-65
2021/10/27 04:10:32;;;;;;;34.07;25.07;;;12.90;99.90;;;;;;5026384;28;20238;-65
2021/10/27 04:13:00;;;;;;;37.47;26.30;;;12.90;99.90;;;;;;5025625;28;20250;-65
2021/10/27 04:15:29;;;;;;;33.23;25.13;;;13.00;99.90;;;;;;5039777;28;20239;-64
2021/10/27 04:17:57;;;;;;;32.20;25.90;;;13.00;99.90;;;;;;5026722;28;20650;-66
2021/10/27 04:20:25;;;;;;;32.77;25.43;;;13.00;99.90;;;;;;5030744;28;20350;-65
2021/10/27 04:22:53;;;;;;;32.00;27.27;;;13.00;99.90;;;;;;5028562;28;20266;-65
2021/10/27 04:25:23;;;;;;;35.63;25.73;;;13.00;99.90;;;;;;5035901;28;20246;-65
2021/10/27 04:27:51;;;;;;;31.70;26.23;;;13.00;99.90;;;;;;5029230;28;20312;-65
2021/10/27 04:30:19;;;;;;;35.20;25.67;;;13.00;99.90;;;;;;5028555;28;20731;-64
2021/10/27 04:32:48;;;;;;;32.20;25.20;;;13.00;99.90;;;;;;5032707;28;20239;-65
2021/10/27 04:35:16;;;;;;;35.97;24.50;;;13.00;99.90;;;;;;5036284;28;20253;-65
2021/10/27 04:37:45;;;;;;;35.03;25.83;;;12.90;99.90;;;;;;5030448;28;20591;-65
2021/10/27 04:40:16;;;;;;;29.30;23.87;;;12.90;99.90;;;;;;5033613;28;20241;-65
2021/10/27 04:42:46;;;;;;;34.27;24.23;;;12.90;99.90;;;;;;5036684;28;20297;-65
2021/10/27 04:45:19;;;;;;;31.83;24.30;;;13.00;99.90;;;;;;5036384;28;20325;-65
2021/10/27 04:47:47;;;;;;;33.60;25.57;;;13.00;99.90;;;;;;5027143;28;20327;-66
2021/10/27 04:50:16;;;;;;;33.53;25.13;;;12.90;99.90;;;;;;5027594;28;20516;-65
2021/10/27 04:52:44;;;;;;;34.87;24.60;;;12.90;99.90;;;;;;5028397;28;20239;-66
2021/10/27 04:55:12;;;;;;;33.40;25.13;;;12.90;99.90;;;;;;5032033;28;20247;-65
2021/10/27 04:57:40;;;;;;;32.77;24.47;;;12.90;99.90;;;;;;5032990;28;20242;-65
2021/10/27 05:00:11;;;;;;;29.50;23.13;;;12.90;99.90;;;;;;5037489;28;20321;-65
2021/10/27 05:02:39;;;;;;;30.93;24.27;;;12.90;99.90;;;;;;5037874;28;20238;-65
2021/10/27 05:05:08;;;;;;;32.47;23.63;;;12.90;99.90;;;;;;5036072;28;20737;-65
2021/10/27 05:07:36;;;;;;;35.80;24.47;;;12.90;99.90;;;;;;5031549;28;20241;-65
2021/10/27 05:10:05;;;;;;;33.60;23.50;;;12.90;99.90;;;;;;5037950;28;20249;-65
2021/10/27 05:12:33;;;;;;;28.77;23.40;;;12.90;99.90;;;;;;5033487;28;20599;-65
2021/10/27 05:15:01;;;;;;;30.33;24.37;;;13.00;99.90;;;;;;5038036;28;20698;-65
2021/10/27 05:17:31;;;;;;;29.17;23.67;;;13.00;99.90;;;;;;5040724;28;20263;-65
2021/10/27 05:19:59;;;;;;;36.30;24.23;;;13.00;99.90;;;;;;5039203;28;20234;-65
2021/10/27 05:22:27;;;;;;;29.90;23.37;;;13.00;99.90;;;;;;5037204;28;20239;-66
2021/10/27 05:24:55;;;;;;;35.23;24.97;;;13.00;99.90;;;;;;5039807;28;20583;-66
2021/10/27 05:27:24;;;;;;;28.63;23.17;;;13.00;99.90;;;;;;5019671;28;20578;-65
2021/10/27 05:29:52;;;;;;;31.03;23.83;;;13.00;99.90;;;;;;5022965;28;20341;-65
2021/10/27 05:32:20;;;;;;;30.97;23.97;;;13.00;99.90;;;;;;5039808;28;20324;-64
2021/10/27 05:34:50;;;;;;;30.03;24.03;;;13.00;99.90;;;;;;5029969;28;20728;-65
2021/10/27 05:37:18;;;;;;;31.43;23.60;;;13.00;99.90;;;;;;5030785;28;20491;-65
2021/10/27 05:39:46;;;;;;;34.03;24.50;;;13.00;99.90;;;;;;5035627;28;20794;-65
2021/10/27 05:42:18;;;;;;;29.50;22.83;;;12.90;99.90;;;;;;5031929;28;20253;-65
2021/10/27 05:44:47;;;;;;;33.70;23.77;;;12.90;99.90;;;;;;5034724;28;20270;-65
2021/10/27 05:47:16;;;;;;;29.90;23.97;;;12.90;99.90;;;;;;5034470;28;20243;-64
2021/10/27 05:49:49;;;;;;;30.43;23.50;;;12.90;99.90;;;;;;5014725;28;20241;-65
2021/10/27 05:55:18;;;;;;;30.10;22.40;;;12.90;99.90;;;;;;4992355;28;20239;-65
2021/10/27 05:57:46;;;;;;;32.30;23.10;;;12.90;99.90;;;;;;5015119;28;20256;-65
2021/10/27 06:00:14;;;;;;;32.10;23.57;;;12.90;99.90;;;;;;5017165;28;20305;-65
2021/10/27 06:02:42;;;;;;;32.37;24.97;;;12.90;99.90;;;;;;5016029;28;20235;-65
2021/10/27 06:05:11;;;;;;;31.87;22.83;;;12.90;99.90;;;;;;5014835;28;20529;-66
2021/10/27 06:07:41;;;;;;;32.67;24.77;;;12.90;99.90;;;;;;5014204;28;20758;-64
2021/10/27 06:10:12;;;;;;;34.50;24.50;;;12.90;99.90;;;;;;5015241;28;20307;-65
2021/10/27 06:12:40;;;;;;;37.23;24.50;;;12.90;99.90;;;;;;5015820;28;20322;-64
2021/10/27 06:15:09;;;;;;;29.97;23.17;;;12.90;99.90;;;;;;5016322;28;20240;-65
2021/10/27 06:17:38;;;;;;;34.53;24.23;;;12.90;99.90;;;;;;5013765;28;20712;-65
2021/10/27 06:20:07;;;;;;;38.77;24.13;;;12.90;99.90;;;;;;5015221;28;20673;-64
2021/10/27 06:22:35;;;;;;;33.07;23.27;;;12.90;99.90;;;;;;5016384;28;20246;-64
2021/10/27 06:25:10;;;;;;;34.23;24.33;;;12.90;99.90;;;;;;5015567;28;21016;-65
2021/10/27 06:27:41;;;;;;;35.47;25.23;;;12.90;99.90;;;;;;5013083;28;20259;-65
2021/10/27 06:30:12;;;;;;;31.67;23.97;;;12.90;99.90;;;;;;5016274;28;20234;-65
2021/10/27 06:32:49;;;;;;;30.70;25.00;;;12.90;99.90;;;;;;5016465;28;20235;-64
2021/10/27 06:35:20;;;;;;;33.00;24.30;;;12.90;99.90;;;;;;5015249;28;20246;-65
2021/10/27 06:38:12;;;;;;;34.07;25.73;;;12.90;99.90;;;;;;5014289;28;20242;-65
2021/10/27 06:48:55;;;;;;;33.20;26.50;;;12.90;99.90;;;;;;5013186;28;20382;-65
2021/10/27 06:51:24;;;;;;;33.37;25.37;;;12.90;99.90;;;;;;5016232;28;20873;-64
2021/10/27 06:53:53;;;;;;;36.63;26.73;;;13.00;99.90;;;;;;5015714;28;20439;-65
2021/10/27 06:56:23;;;;;;;35.23;25.93;;;13.00;99.90;;;;;;5012488;28;20250;-65
2021/10/27 06:58:56;;;;;;;36.30;27.30;;;13.00;99.90;;;;;;5015501;28;20247;-64
2021/10/27 07:01:28;;;;;;;33.50;26.73;;;13.00;99.90;;;;;;5017596;28;20322;-65
2021/10/27 07:07:00;;;;;;;37.83;28.60;;;13.00;99.90;;;;;;5014105;28;20325;-64
2021/10/27 07:15:08;;;;;;;34.60;26.90;;;13.00;99.90;;;;;;5016295;28;20271;-64
2021/10/27 07:17:37;;;;;;;35.23;28.33;;;13.00;99.90;;;;;;5013247;28;20668;-64
2021/10/27 07:20:07;;;;;;;35.27;27.80;;;13.00;99.90;;;;;;5015710;28;20518;-65
2021/10/27 07:22:37;;;;;;;34.03;27.13;;;13.00;99.90;;;;;;5017723;28;20337;-65
2021/10/27 07:25:06;;;;;;;38.43;30.03;;;13.10;99.90;;;;;;5016105;28;20231;-65
2021/10/27 07:27:35;;;;;;;37.83;29.60;;;13.00;99.90;;;;;;5014236;28;20239;-64
2021/10/27 07:30:04;;;;;;;36.43;28.87;;;13.00;99.90;;;;;;5015711;28;20591;-66
2021/10/27 07:32:34;;;;;;;37.50;29.63;;;13.00;99.90;;;;;;5015382;28;20600;-64
2021/10/27 07:35:15;;;;;;;37.83;29.67;;;13.10;99.90;;;;;;5013957;28;20548;-65
2021/10/27 07:40:38;;;;;;;38.33;29.30;;;13.10;99.90;;;;;;5014664;28;20812;-65
2021/10/27 07:43:12;;;;;;;36.03;27.87;;;13.10;99.90;;;;;;5014003;28;20539;-64
2021/10/27 07:45:41;;;;;;;36.17;28.83;;;13.10;99.90;;;;;;5012363;28;20246;-64
2021/10/27 07:48:09;;;;;;;37.20;28.23;;;13.10;99.90;;;;;;4993985;28;20616;-65
2021/10/27 07:50:38;;;;;;;35.03;28.60;;;13.10;99.90;;;;;;4995107;28;21435;-66
2021/10/27 07:53:08;;;;;;;38.10;28.07;;;13.10;99.90;;;;;;4996230;28;20663;-65
2021/10/27 07:55:39;;;;;;;33.63;25.50;;;13.10;99.90;;;;;;4995578;28;20235;-64
2021/10/27 07:58:10;;;;;;;35.87;27.10;;;13.20;99.90;;;;;;4993057;28;20246;-65
2021/10/27 08:00:39;;;;;;;31.43;25.53;;;13.20;99.90;;;;;;4994464;28;20242;-64
2021/10/27 08:03:07;;;;;;;31.27;25.67;;;13.20;99.90;;;;;;4995684;28;20236;-64
2021/10/27 08:05:39;;;;;;;37.07;26.03;;;13.20;99.90;;;;;;4994225;28;20325;-65
2021/10/27 08:08:08;;;;;;;29.80;25.47;;;13.20;99.90;;;;;;4993604;28;20247;-65
2021/10/27 08:10:37;;;;;;;29.50;23.33;;;13.20;99.90;;;;;;4996122;28;20825;-65
2021/10/27 08:13:06;;;;;;;31.23;23.27;;;13.20;99.90;;;;;;4995820;28;20240;-64
2021/10/27 08:15:37;;;;;;;30.47;24.20;;;13.30;99.90;;;;;;4994811;28;20253;-65
2021/10/27 08:18:11;;;;;;;29.20;22.60;;;13.30;99.90;;;;;;4992956;28;21114;-65
2021/10/27 08:20:39;;;;;;;25.43;21.07;;;13.30;99.90;;;;;;4995606;28;20246;-64
2021/10/27 08:23:09;;;;;;;26.30;21.90;;;13.30;99.90;;;;;;5010557;28;20924;-65
2021/10/27 08:25:41;;;;;;;26.30;21.87;;;13.40;99.90;;;;;;4994527;28;20872;-64
2021/10/27 08:28:14;;;;;;;26.87;22.70;;;13.40;99.90;;;;;;4995003;28;20638;-64
2021/10/27 08:30:49;;;;;;;24.97;21.30;;;13.40;99.90;;;;;;4998303;28;20305;-64
2021/10/27 08:33:25;;;;;;;24.73;20.60;;;13.40;99.90;;;;;;4998571;28;20243;-64
2021/10/27 08:35:53;;;;;;;26.20;21.50;;;13.40;99.90;;;;;;4997094;28;20238;-64
2021/10/27 08:38:21;;;;;;;27.80;21.80;;;13.40;99.90;;;;;;5002479;28;20246;-64
2021/10/27 08:40:50;;;;;;;28.63;21.20;;;13.40;99.90;;;;;;5002900;28;20239;-65
2021/10/27 08:43:18;;;;;;;25.10;21.80;;;13.40;99.90;;;;;;5019182;28;20243;-64
2021/10/27 08:45:47;;;;;;;28.00;22.90;;;13.40;99.90;;;;;;5017780;28;20362;-64
2021/10/27 08:48:17;;;;;;;28.13;22.67;;;13.40;99.90;;;;;;5016816;28;21099;-64
2021/10/27 08:50:47;;;;;;;33.13;23.73;;;13.40;99.90;;;;;;5017718;28;20241;-64
2021/10/27 08:53:20;;;;;;;30.13;22.90;;;13.40;99.90;;;;;;5018326;28;20817;-65
2021/10/27 08:55:50;;;;;;;27.83;22.53;;;13.40;99.90;;;;;;5017479;28;20326;-64
2021/10/27 08:58:23;;;;;;;25.53;21.93;;;13.40;99.90;;;;;;5016925;28;20242;-64
2021/10/27 09:01:00;;;;;;;25.13;22.10;;;13.40;99.90;;;;;;5018487;28;20366;-64
2021/10/27 09:03:38;;;;;;;27.03;22.17;;;13.40;99.90;;;;;;5017534;28;20246;-64
2021/10/27 09:06:23;;;;;;;25.70;21.03;;;13.50;99.90;;;;;;5016243;28;21474;-65
2021/10/27 09:09:34;;;;;;;24.17;20.13;;;13.50;99.90;;;;;;5017457;28;20297;-65
2021/10/27 09:15:50;;;;;;;26.63;21.27;;;13.50;99.90;;;;;;5017559;28;20267;-64
2021/10/27 09:35:58;;;;;;;23.17;19.30;;;13.60;99.90;;;;;;5014119;28;20629;-64
2021/10/27 09:44:39;;;;;;;21.27;18.23;;;13.60;99.90;;;;;;5014482;28;20245;-64
2021/10/27 10:04:09;;;;;;;22.07;18.90;;;13.80;99.90;;;;;;5014525;28;20240;-64
2021/10/27 10:06:46;;;;;;;21.07;17.97;;;13.80;99.90;;;;;;5012902;28;20239;-65
2021/10/27 10:09:16;;;;;;;21.33;19.13;;;13.80;99.90;;;;;;5013995;28;20247;-64
2021/10/27 10:11:47;;;;;;;24.23;18.93;;;13.90;99.90;;;;;;5014999;28;20836;-65
2021/10/27 10:14:15;;;;;;;23.23;19.17;;;13.80;99.90;;;;;;5014278;28;20412;-65
2021/10/27 10:16:46;;;;;;;23.37;19.90;;;13.90;99.90;;;;;;5012421;28;20313;-65
2021/10/27 10:19:16;;;;;;;22.23;19.83;;;13.90;99.90;;;;;;5015072;28;20287;-65
2021/10/27 10:21:46;;;;;;;24.27;21.73;;;13.90;99.90;;;;;;5015715;28;20325;-64
2021/10/27 10:24:36;;;;;;;23.03;20.13;;;14.00;99.90;;;;;;5014677;28;20246;-65
2021/10/27 10:27:11;;;;;;;22.73;20.43;;;14.00;99.90;;;;;;5012815;28;20358;-64
2021/10/27 10:30:00;;;;;;;22.50;20.13;;;14.00;99.90;;;;;;5014337;28;20324;-64
2021/10/27 10:32:41;;;;;;;23.07;20.70;;;14.00;99.90;;;;;;5011580;28;20614;-64
2021/10/27 10:35:15;;;;;;;22.87;20.57;;;14.00;99.90;;;;;;5013408;28;20236;-64
2021/10/27 10:37:52;;;;;;;22.63;20.23;;;14.00;99.90;;;;;;5012265;28;20265;-65
2021/10/27 11:25:00;;;;;;;20.90;18.87;;;14.00;99.90;;;;;;5013465;28;20243;-64
2021/10/27 11:39:34;;;;;;;22.00;19.87;;;14.20;99.90;;;;;;5012936;28;20237;-64
2021/10/27 11:42:20;;;;;;;22.60;20.47;;;14.30;99.90;;;;;;5013076;28;20259;-64
2021/10/27 11:44:53;;;;;;;22.90;20.90;;;14.30;99.90;;;;;;5014108;28;20848;-64
2021/10/27 11:47:35;;;;;;;22.40;20.10;;;14.30;99.90;;;;;;5010437;28;20236;-65
2021/10/27 11:50:04;;;;;;;23.30;20.33;;;14.20;99.90;;;;;;5013147;28;20243;-65
2021/10/27 11:52:37;;;;;;;24.53;21.97;;;14.20;99.90;;;;;;5013996;28;20232;-64
2021/10/27 11:55:06;;;;;;;23.77;21.47;;;14.20;99.90;;;;;;5012518;28;20665;-65
2021/10/27 11:57:39;;;;;;;25.57;22.87;;;14.20;99.90;;;;;;5011054;28;20237;-65
2021/10/27 12:00:24;;;;;;;24.70;22.30;;;14.20;99.90;;;;;;5012853;28;20599;-64
2021/10/27 12:02:56;;;;;;;25.17;22.57;;;14.20;99.90;;;;;;5013012;28;20237;-64
2021/10/27 12:05:27;;;;;;;23.83;21.53;;;14.30;99.90;;;;;;5012576;28;20711;-64
2021/10/27 12:08:30;;;;;;;24.10;21.90;;;14.30;99.90;;;;;;5010882;28;20251;-65
2021/10/27 12:11:09;;;;;;;22.60;20.40;;;14.20;99.90;;;;;;5009428;28;20236;-64
2021/10/27 12:13:43;;;;;;;24.37;21.83;;;14.20;99.90;;;;;;5012490;28;20235;-64
2021/10/27 12:16:38;;;;;;;23.87;21.40;;;14.20;99.90;;;;;;5009814;28;20238;-64
2021/10/27 12:19:13;;;;;;;23.97;21.57;;;14.20;99.90;;;;;;5010293;28;20690;-65
2021/10/27 12:21:51;;;;;;;24.07;21.53;;;14.10;99.90;;;;;;5011216;28;20238;-64
2021/10/27 12:24:22;;;;;;;23.57;21.20;;;14.10;99.90;;;;;;5012166;28;20301;-63
2021/10/27 12:26:56;;;;;;;24.97;22.30;;;14.10;99.90;;;;;;5008184;28;20246;-64
2021/10/27 12:29:28;;;;;;;26.20;23.27;;;14.10;99.90;;;;;;5012132;28;20242;-64
2021/10/27 12:32:09;;;;;;;25.53;22.80;;;14.10;99.90;;;;;;4993146;28;20356;-64
2021/10/27 12:34:47;;;;;;;25.63;22.83;;;14.00;99.90;;;;;;4996014;28;20235;-64
2021/10/27 12:37:29;;;;;;;25.10;22.43;;;14.00;99.90;;;;;;5004143;28;20239;-64
2021/10/27 12:40:12;;;;;;;25.57;23.20;;;14.00;99.90;;;;;;5010698;28;20393;-64
2021/10/27 12:42:42;;;;;;;26.17;23.40;;;14.00;99.90;;;;;;5011704;28;20783;-64
2021/10/27 12:45:10;;;;;;;24.53;22.10;;;14.00;99.90;;;;;;5010560;28;20239;-65
2021/10/27 12:47:40;;;;;;;23.50;21.20;;;14.00;99.90;;;;;;5008657;28;20315;-64
2021/10/27 12:50:11;;;;;;;22.87;20.70;;;14.00;99.90;;;;;;5020937;28;20310;-64
2021/10/27 12:52:44;;;;;;;22.97;20.60;;;13.90;99.90;;;;;;5031594;28;20240;-64
2021/10/27 12:55:26;;;;;;;23.73;20.33;;;13.90;99.90;;;;;;5032690;28;20289;-64
2021/10/27 12:58:07;;;;;;;21.70;19.43;;;13.90;99.90;;;;;;5033648;28;20650;-64
2021/10/27 13:00:53;;;;;;;21.70;19.80;;;13.90;99.90;;;;;;5032395;28;20750;-65
2021/10/27 13:03:41;;;;;;;24.77;19.80;;;13.90;99.90;;;;;;5032369;28;20277;-65
2021/10/27 13:06:23;;;;;;;21.80;19.70;;;13.90;99.90;;;;;;5035118;28;20224;-65
2021/10/27 13:11:52;;;;;;;22.37;18.83;;;13.90;99.90;;;;;;5029054;28;20318;-65
2021/10/27 13:14:44;;;;;;;22.13;19.57;;;13.90;99.90;;;;;;5033623;28;20875;-64
2021/10/27 13:31:06;;;;;;;18.93;17.07;;;14.10;99.90;;;;;;5039963;28;20228;-65
2021/10/27 13:33:34;;;;;;;18.70;16.50;;;14.10;99.90;;;;;;5036548;28;20289;-65
2021/10/27 13:36:04;;;;;;;19.43;17.37;;;14.10;99.90;;;;;;5035659;28;20235;-64
2021/10/27 13:38:35;;;;;;;18.47;16.50;;;14.10;99.90;;;;;;5042953;28;20235;-65
2021/10/27 13:41:05;;;;;;;17.37;15.57;;;14.10;99.90;;;;;;5038250;28;20234;-64
2021/10/27 13:43:37;;;;;;;17.47;15.80;;;14.10;99.90;;;;;;5037028;28;20786;-65
2021/10/27 13:46:26;;;;;;;16.97;14.63;;;14.10;99.90;;;;;;5031221;28;20246;-64
2021/10/27 13:49:18;;;;;;;16.77;14.97;;;14.10;99.90;;;;;;5038343;28;20271;-65
2021/10/27 14:08:25;;;;;;;14.17;12.00;;;14.20;99.90;;;;;;5011475;28;20323;-64
2021/10/27 14:11:03;;;;;;;13.23;11.50;;;14.20;99.90;;;;;;5033593;28;20564;-64
2021/10/27 14:13:53;;;;;;;16.10;10.70;;;14.20;99.90;;;;;;5033154;28;20590;-65
2021/10/27 15:21:07;;;;;;;9.97;6.00;;;14.50;99.90;;;;;;4995568;28;20225;-65
2021/10/27 15:23:41;;;;;;;9.47;6.17;;;14.40;99.90;;;;;;5044334;28;20325;-65
2021/10/27 15:29:06;;;;;;;11.77;6.00;;;14.40;99.90;;;;;;5071265;28;20306;-65
2021/10/27 15:32:05;;;;;;;11.20;6.10;;;14.40;99.90;;;;;;5075046;28;20259;-64
2021/10/27 15:43:16;;;;;;;9.87;6.03;;;14.40;99.90;;;;;;5041122;28;20650;-64
2021/10/27 15:51:19;;;;;;;7.27;5.33;;;14.40;99.90;;;;;;5048507;28;20254;-64
2021/10/27 15:53:47;;;;;;;8.73;5.10;;;14.40;99.90;;;;;;5037791;28;20262;-64
2021/10/27 15:56:15;;;;;;;10.20;5.33;;;14.40;99.90;;;;;;5036480;28;20265;-65
2021/10/27 15:58:44;;;;;;;7.53;5.23;;;14.40;99.90;;;;;;5035307;28;20241;-65
2021/10/27 16:01:13;;;;;;;8.47;5.03;;;14.40;99.90;;;;;;5035998;28;20242;-65
2021/10/27 16:03:41;;;;;;;9.87;5.00;;;14.40;99.90;;;;;;5036196;28;20239;-64
2021/10/27 16:06:11;;;;;;;8.20;4.97;;;14.40;99.90;;;;;;5037671;28;20883;-64
2021/10/27 16:08:40;;;;;;;8.70;5.40;;;14.40;99.90;;;;;;5033800;28;20231;-64
2021/10/27 16:11:08;;;;;;;8.07;4.40;;;14.40;99.90;;;;;;5035876;28;20239;-65
2021/10/27 16:13:37;;;;;;;7.97;5.07;;;14.30;99.90;;;;;;5036255;28;20230;-65
2021/10/27 16:16:08;;;;;;;9.27;4.77;;;14.40;99.90;;;;;;5037599;28;20373;-65
2021/10/27 16:18:37;;;;;;;8.53;5.07;;;14.40;99.90;;;;;;5032083;28;20236;-64
2021/10/27 16:21:05;;;;;;;7.47;4.87;;;14.40;99.90;;;;;;5037271;28;20809;-64
2021/10/27 16:23:33;;;;;;;6.77;4.50;;;14.40;99.90;;;;;;5037115;28;21067;-64
2021/10/27 16:26:02;;;;;;;6.27;4.50;;;14.40;99.90;;;;;;5037027;28;20242;-64
2021/10/27 16:28:30;;;;;;;9.47;4.30;;;14.30;99.90;;;;;;5033474;28;20676;-64
2021/10/27 16:30:58;;;;;;;8.37;5.20;;;14.30;99.90;;;;;;5036711;28;20262;-64
2021/10/27 16:33:27;;;;;;;6.00;4.67;;;14.30;99.90;;;;;;5035967;28;20243;-64
2021/10/27 16:35:56;;;;;;;6.53;4.37;;;14.30;99.90;;;;;;5037041;28;20238;-65
2021/10/27 16:38:24;;;;;;;7.67;4.43;;;14.30;99.90;;;;;;5032263;28;20243;-64
2021/10/27 16:40:53;;;;;;;5.13;4.40;;;14.30;99.90;;;;;;5037218;28;20236;-64
2021/10/27 16:43:22;;;;;;;8.60;5.13;;;14.30;99.90;;;;;;5034433;28;20242;-64
2021/10/27 16:45:51;;;;;;;9.47;5.33;;;14.30;99.90;;;;;;5035374;28;20698;-64
2021/10/27 16:48:20;;;;;;;6.57;5.03;;;14.30;99.90;;;;;;5033035;28;21376;-64